Time;durP1;ratioP1;P1;durP2;ratioP2;P2;SDS_P1;SDS_P2;PMS_P1;PMS_P2;Temp;Humidity;BMP_temperature;BMP_pressure;BME280_temperature;BME280_humidity;BME280_pressure;Samples;Min_cycle;Max_cycle;Signal;HPM_P1;HPM_P2
2021/01/31 00:00:58;;;;;;;8.20;5.50;;;;;;;;;;5051207;28;20063;-24
2021/01/31 00:03:25;;;;;;;9.93;6.70;;;;;;;;;;5052375;28;20049;-24
2021/01/31 00:05:51;;;;;;;10.55;7.28;;;;;;;;;;5052201;28;20041;-25
2021/01/31 00:08:17;;;;;;;11.23;6.45;;;;;;;;;;5051896;28;20033;-24
2021/01/31 00:10:43;;;;;;;6.55;5.45;;;;;;;;;;5051498;28;20098;-24
2021/01/31 00:13:09;;;;;;;9.55;6.63;;;;;;;;;;5052195;28;20502;-25
2021/01/31 00:15:38;;;;;;;9.38;6.68;;;;;;;;;;5050949;28;20491;-24
2021/01/31 00:18:04;;;;;;;10.30;5.70;;;;;;;;;;5050820;28;20039;-24
2021/01/31 00:20:31;;;;;;;7.88;5.72;;;;;;;;;;5050842;28;20060;-24
2021/01/31 00:22:56;;;;;;;9.52;5.32;;;;;;;;;;5052246;28;20171;-24
2021/01/31 00:25:21;;;;;;;7.88;6.65;;;;;;;;;;5052544;28;20544;-25
2021/01/31 00:27:47;;;;;;;7.95;5.32;;;;;;;;;;5051873;28;20476;-24
2021/01/31 00:30:15;;;;;;;8.48;6.15;;;;;;;;;;5051932;28;20029;-24
2021/01/31 00:32:41;;;;;;;6.22;4.97;;;;;;;;;;5038186;28;20518;-25
2021/01/31 00:35:06;;;;;;;7.90;5.22;;;;;;;;;;5055916;28;20041;-24
2021/01/31 00:37:32;;;;;;;9.00;5.88;;;;;;;;;;5055081;28;20028;-25
2021/01/31 00:39:57;;;;;;;8.50;5.75;;;;;;;;;;5056089;28;20134;-24
2021/01/31 00:42:22;;;;;;;9.77;5.25;;;;;;;;;;5055938;28;20040;-24
2021/01/31 00:44:52;;;;;;;6.60;4.20;;;;;;;;;;5037769;28;20054;-24
2021/01/31 00:47:18;;;;;;;8.30;5.18;;;;;;;;;;5054617;28;20578;-24
2021/01/31 00:49:44;;;;;;;9.00;6.85;;;;;;;;;;5054366;28;20383;-24
2021/01/31 00:52:09;;;;;;;6.22;4.93;;;;;;;;;;5054485;28;20083;-25
2021/01/31 00:54:36;;;;;;;7.85;4.93;;;;;;;;;;5054431;28;20029;-24
2021/01/31 00:57:04;;;;;;;9.38;5.55;;;;;;;;;;5037763;28;20068;-24
2021/01/31 00:59:29;;;;;;;7.65;5.30;;;;;;;;;;5054095;28;20052;-24
2021/01/31 01:01:55;;;;;;;7.72;5.03;;;;;;;;;;5055508;28;20384;-25
2021/01/31 01:04:21;;;;;;;7.25;5.22;;;;;;;;;;5054198;28;20142;-24
2021/01/31 01:06:58;;;;;;;7.82;5.25;;;;;;;;;;5054239;28;20043;-25
2021/01/31 01:09:24;;;;;;;7.20;5.05;;;;;;;;;;5055402;28;20025;-25
2021/01/31 01:11:49;;;;;;;8.15;5.30;;;;;;;;;;5055210;28;20047;-25
2021/01/31 01:14:14;;;;;;;6.95;4.63;;;;;;;;;;5055435;28;20082;-25
2021/01/31 01:16:40;;;;;;;6.40;5.20;;;;;;;;;;5055330;28;20029;-25
2021/01/31 01:19:05;;;;;;;7.10;5.07;;;;;;;;;;5054052;28;20049;-25
2021/01/31 01:21:31;;;;;;;7.65;4.43;;;;;;;;;;5055265;28;20029;-25
2021/01/31 01:23:57;;;;;;;7.25;4.57;;;;;;;;;;5055330;28;20113;-25
2021/01/31 01:26:26;;;;;;;7.43;5.20;;;;;;;;;;5055164;28;20083;-25
2021/01/31 01:28:51;;;;;;;5.53;4.30;;;;;;;;;;5055330;28;20379;-25
2021/01/31 01:31:16;;;;;;;7.38;4.68;;;;;;;;;;5053814;28;20033;-25
2021/01/31 01:33:42;;;;;;;9.25;4.13;;;;;;;;;;5053667;28;20429;-24
2021/01/31 01:36:07;;;;;;;6.50;4.20;;;;;;;;;;5055153;28;20410;-25
2021/01/31 01:38:32;;;;;;;5.53;3.92;;;;;;;;;;5053628;28;20446;-25
2021/01/31 01:40:58;;;;;;;5.57;3.92;;;;;;;;;;5053543;28;20071;-25
2021/01/31 01:43:23;;;;;;;5.18;3.25;;;;;;;;;;5052787;28;20037;-25
2021/01/31 01:46:07;;;;;;;5.03;3.75;;;;;;;;;;5054708;28;20025;-25
2021/01/31 01:48:33;;;;;;;5.22;3.45;;;;;;;;;;5054709;28;20028;-25
2021/01/31 01:50:59;;;;;;;4.57;3.75;;;;;;;;;;5054592;28;20103;-25
2021/01/31 01:53:26;;;;;;;7.38;4.10;;;;;;;;;;5053634;28;20103;-25
2021/01/31 01:55:59;;;;;;;4.72;3.67;;;;;;;;;;5053231;28;20043;-26
2021/01/31 01:58:26;;;;;;;5.18;4.30;;;;;;;;;;5054262;28;20051;-25
2021/01/31 02:00:52;;;;;;;4.78;3.05;;;;;;;;;;5053102;28;20029;-26
2021/01/31 02:03:21;;;;;;;5.35;3.22;;;;;;;;;;5044482;28;20048;-25
2021/01/31 02:05:52;;;;;;;4.88;3.70;;;;;;;;;;5034393;28;20430;-25
2021/01/31 02:08:17;;;;;;;4.38;3.40;;;;;;;;;;5034437;28;20029;-25
2021/01/31 02:10:43;;;;;;;6.75;3.95;;;;;;;;;;5034447;28;20367;-25
2021/01/31 02:13:08;;;;;;;5.78;3.22;;;;;;;;;;5034414;28;20033;-25
2021/01/31 02:15:34;;;;;;;5.30;3.67;;;;;;;;;;5034245;28;20076;-25
2021/01/31 02:17:59;;;;;;;5.07;3.58;;;;;;;;;;5034145;28;20041;-25
2021/01/31 02:20:44;;;;;;;5.60;3.72;;;;;;;;;;5034199;28;20035;-25
2021/01/31 02:23:23;;;;;;;4.43;3.10;;;;;;;;;;5034377;28;20025;-25
2021/01/31 02:25:52;;;;;;;4.18;3.65;;;;;;;;;;5034055;28;20034;-25
2021/01/31 02:28:36;;;;;;;5.38;3.47;;;;;;;;;;5034085;28;20500;-25
2021/01/31 02:31:13;;;;;;;4.03;3.35;;;;;;;;;;5033833;28;20151;-26
2021/01/31 02:33:42;;;;;;;4.85;3.67;;;;;;;;;;5032743;28;20034;-25
2021/01/31 02:36:12;;;;;;;6.10;3.92;;;;;;;;;;5032569;28;20396;-25
2021/01/31 02:38:42;;;;;;;3.72;2.78;;;;;;;;;;5033802;28;20124;-26
2021/01/31 02:41:10;;;;;;;4.35;3.50;;;;;;;;;;5033769;28;20047;-25
2021/01/31 02:43:52;;;;;;;4.40;3.20;;;;;;;;;;5032770;28;20043;-25
2021/01/31 02:46:17;;;;;;;4.35;2.72;;;;;;;;;;5033720;28;20033;-25
2021/01/31 02:48:44;;;;;;;4.50;3.15;;;;;;;;;;5033575;28;20040;-25
2021/01/31 02:51:15;;;;;;;4.13;2.90;;;;;;;;;;5033558;28;20461;-25
2021/01/31 02:53:44;;;;;;;3.05;2.53;;;;;;;;;;5033780;28;20087;-26
2021/01/31 02:56:36;;;;;;;5.00;2.85;;;;;;;;;;5033034;28;20014;-25
2021/01/31 02:59:05;;;;;;;3.63;2.50;;;;;;;;;;5029714;28;20056;-25
2021/01/31 03:01:37;;;;;;;2.50;1.75;;;;;;;;;;5033647;28;20286;-25
2021/01/31 03:04:08;;;;;;;2.15;1.58;;;;;;;;;;5033340;28;20484;-25
2021/01/31 03:06:54;;;;;;;4.15;2.42;;;;;;;;;;5033234;28;20037;-25
2021/01/31 03:09:23;;;;;;;2.33;1.70;;;;;;;;;;5031570;28;20077;-30
2021/01/31 03:11:51;;;;;;;2.25;1.85;;;;;;;;;;5033026;28;20116;-25
2021/01/31 03:14:24;;;;;;;3.42;1.88;;;;;;;;;;5033481;28;20033;-25
2021/01/31 03:16:49;;;;;;;2.00;1.55;;;;;;;;;;5033329;28;20445;-26
2021/01/31 03:19:41;;;;;;;3.47;2.00;;;;;;;;;;5032964;28;20124;-25
2021/01/31 03:22:12;;;;;;;4.80;1.90;;;;;;;;;;5031754;28;20045;-25
2021/01/31 03:24:41;;;;;;;2.40;1.58;;;;;;;;;;5033031;28;20038;-23
2021/01/31 03:27:12;;;;;;;6.13;1.95;;;;;;;;;;5031682;28;20376;-24
2021/01/31 03:29:37;;;;;;;4.07;1.75;;;;;;;;;;5031690;28;20037;-24
2021/01/31 03:32:05;;;;;;;2.40;1.60;;;;;;;;;;5032758;28;20083;-24
2021/01/31 03:34:36;;;;;;;1.98;1.73;;;;;;;;;;5033062;28;20044;-25
2021/01/31 03:37:02;;;;;;;1.65;1.25;;;;;;;;;;5032976;28;20060;-24
2021/01/31 03:39:28;;;;;;;2.33;1.30;;;;;;;;;;5031843;28;20120;-25
2021/01/31 03:41:54;;;;;;;1.95;1.45;;;;;;;;;;5032936;28;20049;-25
2021/01/31 03:44:20;;;;;;;1.40;1.25;;;;;;;;;;5032693;28;20527;-24
2021/01/31 03:46:49;;;;;;;1.67;1.58;;;;;;;;;;5014798;28;20086;-24
2021/01/31 03:49:17;;;;;;;1.48;1.38;;;;;;;;;;5032582;28;20515;-24
2021/01/31 03:51:42;;;;;;;1.38;0.88;;;;;;;;;;5031206;28;20030;-24
2021/01/31 03:54:09;;;;;;;0.98;0.77;;;;;;;;;;5032612;28;20415;-24
2021/01/31 03:56:40;;;;;;;2.25;1.10;;;;;;;;;;5032512;28;20033;-24
2021/01/31 03:59:07;;;;;;;1.45;0.90;;;;;;;;;;5032326;28;20510;-23
2021/01/31 04:01:36;;;;;;;1.35;1.02;;;;;;;;;;5031242;28;20152;-24
2021/01/31 04:04:04;;;;;;;1.38;1.10;;;;;;;;;;5032386;28;20041;-24
2021/01/31 04:06:32;;;;;;;0.70;0.70;;;;;;;;;;5032246;28;20041;-23
2021/01/31 04:08:57;;;;;;;0.70;0.60;;;;;;;;;;5032172;28;20038;-24
2021/01/31 04:11:34;;;;;;;1.13;0.52;;;;;;;;;;5014633;28;20052;-24
2021/01/31 04:14:01;;;;;;;0.95;0.60;;;;;;;;;;5030978;28;20084;-24
2021/01/31 04:16:28;;;;;;;1.52;0.65;;;;;;;;;;5032273;28;20087;-23
2021/01/31 04:18:54;;;;;;;1.00;0.47;;;;;;;;;;5030713;28;20103;-23
2021/01/31 04:21:19;;;;;;;1.17;0.90;;;;;;;;;;5032231;28;20468;-24
2021/01/31 04:23:44;;;;;;;1.30;0.90;;;;;;;;;;5032109;28;20029;-24
2021/01/31 04:26:10;;;;;;;1.70;0.70;;;;;;;;;;5030895;28;20033;-24
2021/01/31 04:28:35;;;;;;;4.15;1.50;;;;;;;;;;5032165;28;20472;-24
2021/01/31 04:31:01;;;;;;;1.00;0.75;;;;;;;;;;5032010;28;20083;-24
2021/01/31 04:33:26;;;;;;;1.40;1.30;;;;;;;;;;5032150;28;20037;-24
2021/01/31 04:35:52;;;;;;;10.00;1.35;;;;;;;;;;5032068;28;20033;-23
2021/01/31 04:38:18;;;;;;;6.80;0.70;;;;;;;;;;5032159;28;20499;-24
2021/01/31 04:40:43;;;;;;;1.05;0.52;;;;;;;;;;5031989;28;20120;-23
2021/01/31 04:43:11;;;;;;;0.93;0.50;;;;;;;;;;5032327;28;20025;-24
2021/01/31 04:45:37;;;;;;;0.52;0.40;;;;;;;;;;5032050;28;20112;-23
2021/01/31 04:48:20;;;;;;;1.52;0.70;;;;;;;;;;5032238;28;20029;-23
2021/01/31 04:50:48;;;;;;;1.13;0.50;;;;;;;;;;5032111;28;20033;-23
2021/01/31 04:53:24;;;;;;;0.88;0.50;;;;;;;;;;5014254;28;20030;-23
2021/01/31 04:55:53;;;;;;;0.98;0.40;;;;;;;;;;5032150;28;20025;-23
2021/01/31 04:58:32;;;;;;;0.70;0.70;;;;;;;;;;5031714;28;20056;-23
2021/01/31 05:01:06;;;;;;;0.43;0.40;;;;;;;;;;5031821;28;20488;-24
2021/01/31 05:03:34;;;;;;;4.38;1.90;;;;;;;;;;5031859;28;20492;-23
2021/01/31 05:06:03;;;;;;;1.23;0.90;;;;;;;;;;5031741;28;20571;-24
2021/01/31 05:08:29;;;;;;;0.90;0.40;;;;;;;;;;5031820;28;20029;-23
2021/01/31 05:10:56;;;;;;;1.20;0.73;;;;;;;;;;5031710;28;20029;-23
2021/01/31 05:13:26;;;;;;;0.45;0.40;;;;;;;;;;5030425;28;20476;-24
2021/01/31 05:16:10;;;;;;;0.63;0.22;;;;;;;;;;5031965;28;20518;-23
2021/01/31 05:18:38;;;;;;;0.30;0.30;;;;;;;;;;5032346;28;20091;-23
2021/01/31 05:21:09;;;;;;;1.50;0.32;;;;;;;;;;5035402;28;20041;-24
2021/01/31 05:23:39;;;;;;;0.38;0.30;;;;;;;;;;5035332;28;20026;-24
2021/01/31 05:26:06;;;;;;;0.08;0.08;;;;;;;;;;5035126;28;20427;-24
2021/01/31 05:28:33;;;;;;;0.80;0.22;;;;;;;;;;5033881;28;20492;-24
2021/01/31 05:30:58;;;;;;;1.23;0.32;;;;;;;;;;5035115;28;20640;-24
2021/01/31 05:33:24;;;;;;;2.95;0.40;;;;;;;;;;5035067;28;20033;-24
2021/01/31 05:35:49;;;;;;;0.40;0.20;;;;;;;;;;5033690;28;20030;-24
2021/01/31 05:38:33;;;;;;;0.30;0.30;;;;;;;;;;5035208;28;20446;-24
2021/01/31 05:40:58;;;;;;;3.45;0.65;;;;;;;;;;5034923;28;20053;-23
2021/01/31 05:43:25;;;;;;;0.10;0.10;;;;;;;;;;5033642;28;20496;-24
2021/01/31 05:45:51;;;;;;;0.60;0.30;;;;;;;;;;5034875;28;20034;-23
2021/01/31 05:48:31;;;;;;;0.45;0.45;;;;;;;;;;5034703;28;20037;-23
2021/01/31 05:50:56;;;;;;;0.30;0.30;;;;;;;;;;5033528;28;20104;-24
2021/01/31 05:53:27;;;;;;;0.10;0.10;;;;;;;;;;5033540;28;20104;-23
2021/01/31 05:56:11;;;;;;;0.28;0.22;;;;;;;;;;5034595;28;20025;-23
2021/01/31 05:58:37;;;;;;;0.60;0.60;;;;;;;;;;5034307;28;20049;-23
2021/01/31 06:01:10;;;;;;;3.03;0.10;;;;;;;;;;5034445;28;20128;-24
2021/01/31 06:03:36;;;;;;;0.10;0.10;;;;;;;;;;5034452;28;20105;-24
2021/01/31 06:06:07;;;;;;;0.10;0.10;;;;;;;;;;5034447;28;20061;-24
2021/01/31 06:08:33;;;;;;;0.32;0.20;;;;;;;;;;5034730;28;20435;-23
2021/01/31 06:11:00;;;;;;;4.68;1.20;;;;;;;;;;5034272;28;20117;-24
2021/01/31 06:13:26;;;;;;;0.50;0.50;;;;;;;;;;5034337;28;20033;-24
2021/01/31 06:15:51;;;;;;;0.00;0.00;;;;;;;;;;5034516;28;20029;-22
2021/01/31 06:18:19;;;;;;;0.10;0.10;;;;;;;;;;5034472;28;20533;-23
2021/01/31 06:20:45;;;;;;;0.20;0.20;;;;;;;;;;5032897;28;20120;-23
2021/01/31 06:23:19;;;;;;;0.10;0.10;;;;;;;;;;5016384;28;20025;-23
2021/01/31 06:25:44;;;;;;;0.57;0.30;;;;;;;;;;5034106;28;20109;-23
2021/01/31 06:28:09;;;;;;;0.15;0.10;;;;;;;;;;5033937;28;20044;-24
2021/01/31 06:30:36;;;;;;;0.20;0.20;;;;;;;;;;5034174;28;20092;-23
2021/01/31 06:33:02;;;;;;;1.23;0.43;;;;;;;;;;5033873;28;20476;-23
2021/01/31 06:35:28;;;;;;;0.93;0.10;;;;;;;;;;5034303;28;20040;-23
2021/01/31 06:38:20;;;;;;;4.65;0.57;;;;;;;;;;5033777;28;20061;-23
2021/01/31 06:40:48;;;;;;;0.08;0.08;;;;;;;;;;5032569;28;20033;-23
2021/01/31 06:43:16;;;;;;;0.00;0.00;;;;;;;;;;5033767;28;20028;-23
2021/01/31 06:45:45;;;;;;;0.10;0.10;;;;;;;;;;5032457;28;20098;-24
2021/01/31 06:48:25;;;;;;;0.17;0.17;;;;;;;;;;5033723;28;20080;-23
2021/01/31 06:51:09;;;;;;;0.10;0.10;;;;;;;;;;5033616;28;20086;-23
2021/01/31 06:54:13;;;;;;;0.60;0.40;;;;;;;;;;5033829;28;20022;-23
2021/01/31 06:56:42;;;;;;;1.58;1.02;;;;;;;;;;5011126;28;20120;-23
2021/01/31 06:59:13;;;;;;;0.10;0.10;;;;;;;;;;5011146;28;20037;-22
2021/01/31 07:01:59;;;;;;;0.10;0.10;;;;;;;;;;5022732;28;20041;-23
2021/01/31 07:04:36;;;;;;;0.17;0.17;;;;;;;;;;5033702;28;20282;-23
2021/01/31 07:07:23;;;;;;;0.13;0.10;;;;;;;;;;5033292;28;20040;-23
2021/01/31 07:09:51;;;;;;;0.10;0.10;;;;;;;;;;5033443;28;20090;-23
2021/01/31 07:12:22;;;;;;;1.08;0.13;;;;;;;;;;5033297;28;20559;-22
2021/01/31 07:14:53;;;;;;;0.10;0.10;;;;;;;;;;5032964;28;20112;-23
2021/01/31 07:17:18;;;;;;;0.10;0.10;;;;;;;;;;5033263;28;20033;-23
2021/01/31 07:19:47;;;;;;;0.30;0.20;;;;;;;;;;5032998;28;20042;-22
2021/01/31 07:22:16;;;;;;;0.10;0.10;;;;;;;;;;5033109;28;20068;-23
2021/01/31 07:24:57;;;;;;;0.57;0.20;;;;;;;;;;5031802;28;20053;-22
2021/01/31 07:27:28;;;;;;;0.20;0.20;;;;;;;;;;5033058;28;20025;-22
2021/01/31 07:29:59;;;;;;;0.10;0.10;;;;;;;;;;5032972;28;20021;-23
2021/01/31 07:32:26;;;;;;;0.15;0.10;;;;;;;;;;5032049;28;20033;-23
2021/01/31 07:34:55;;;;;;;0.20;0.10;;;;;;;;;;5032753;28;20436;-25
2021/01/31 07:37:21;;;;;;;0.00;0.00;;;;;;;;;;5032783;28;20086;-23
2021/01/31 07:39:52;;;;;;;1.00;1.00;;;;;;;;;;5032422;28;20045;-23
2021/01/31 07:42:18;;;;;;;0.10;0.10;;;;;;;;;;5031028;28;20033;-23
2021/01/31 07:44:45;;;;;;;0.10;0.10;;;;;;;;;;5032691;28;20040;-23
2021/01/31 07:47:11;;;;;;;0.60;0.10;;;;;;;;;;5032733;28;20033;-23
2021/01/31 07:49:55;;;;;;;0.57;0.20;;;;;;;;;;5031147;28;20041;-23
2021/01/31 07:52:22;;;;;;;0.28;0.10;;;;;;;;;;5032633;28;20151;-23
2021/01/31 07:54:48;;;;;;;0.00;0.00;;;;;;;;;;5032208;28;20064;-24
2021/01/31 07:57:33;;;;;;;0.10;0.10;;;;;;;;;;4694304;28;10000200;-23
2021/01/31 08:00:00;;;;;;;0.20;0.20;;;;;;;;;;5047744;28;20041;-23
2021/01/31 08:02:35;;;;;;;0.28;0.28;;;;;;;;;;5048940;28;20095;-25
2021/01/31 08:05:05;;;;;;;0.20;0.20;;;;;;;;;;5049200;28;20033;-25
2021/01/31 08:07:51;;;;;;;0.30;0.30;;;;;;;;;;5047091;28;20025;-24
2021/01/31 08:10:37;;;;;;;0.30;0.10;;;;;;;;;;5048471;28;20025;-23
2021/01/31 08:13:02;;;;;;;0.03;0.03;;;;;;;;;;5048512;28;20025;-25
2021/01/31 08:15:33;;;;;;;0.10;0.10;;;;;;;;;;5048786;28;20017;-23
2021/01/31 08:17:59;;;;;;;0.10;0.10;;;;;;;;;;5047293;28;20059;-25
2021/01/31 08:20:28;;;;;;;0.40;0.20;;;;;;;;;;5047750;28;20037;-25
2021/01/31 08:22:57;;;;;;;10.32;0.52;;;;;;;;;;5047819;28;20048;-25
2021/01/31 08:25:25;;;;;;;0.00;0.00;;;;;;;;;;5039880;28;20021;-25
2021/01/31 08:27:55;;;;;;;0.10;0.10;;;;;;;;;;5048635;28;20033;-24
2021/01/31 08:30:34;;;;;;;0.35;0.30;;;;;;;;;;5047239;28;20060;-24
2021/01/31 08:33:06;;;;;;;0.55;0.20;;;;;;;;;;5029805;28;20043;-24
2021/01/31 08:35:31;;;;;;;1.08;0.77;;;;;;;;;;5048426;28;20094;-25
2021/01/31 08:38:15;;;;;;;0.00;0.00;;;;;;;;;;5048035;28;20472;-24
2021/01/31 08:41:01;;;;;;;0.00;0.00;;;;;;;;;;5048232;28;20411;-24
2021/01/31 08:43:37;;;;;;;0.20;0.20;;;;;;;;;;5047855;28;20025;-25
2021/01/31 08:46:04;;;;;;;0.08;0.08;;;;;;;;;;5048539;28;20040;-24
2021/01/31 08:48:30;;;;;;;0.00;0.00;;;;;;;;;;5036071;28;20381;-23
2021/01/31 08:51:28;;;;;;;0.10;0.10;;;;;;;;;;5028800;28;20049;-24
2021/01/31 08:54:05;;;;;;;0.20;0.20;;;;;;;;;;5019966;28;20045;-25
2021/01/31 08:56:39;;;;;;;0.25;0.10;;;;;;;;;;5032101;28;20093;-24
2021/01/31 08:59:06;;;;;;;0.40;0.10;;;;;;;;;;5032553;28;20041;-24
2021/01/31 09:01:41;;;;;;;0.17;0.17;;;;;;;;;;5032296;28;20084;-24
2021/01/31 09:04:10;;;;;;;0.10;0.10;;;;;;;;;;5032245;28;20435;-25
2021/01/31 09:06:37;;;;;;;0.10;0.10;;;;;;;;;;5032344;28;20076;-24
2021/01/31 09:09:03;;;;;;;0.10;0.10;;;;;;;;;;5031774;28;20091;-24
2021/01/31 09:11:29;;;;;;;0.65;0.20;;;;;;;;;;5031115;28;20079;-22
2021/01/31 09:13:54;;;;;;;0.63;0.30;;;;;;;;;;5032026;28;20676;-22
2021/01/31 09:16:22;;;;;;;0.50;0.50;;;;;;;;;;5032081;28;20065;-23
2021/01/31 09:18:48;;;;;;;0.05;0.05;;;;;;;;;;5031727;28;20041;-24
2021/01/31 09:21:24;;;;;;;0.10;0.10;;;;;;;;;;5029976;28;20039;-32
2021/01/31 09:23:49;;;;;;;0.43;0.20;;;;;;;;;;5031782;28;20464;-24
2021/01/31 09:26:15;;;;;;;0.20;0.20;;;;;;;;;;5013423;28;20092;-25
2021/01/31 09:28:40;;;;;;;0.88;0.40;;;;;;;;;;5046121;28;20087;-24
2021/01/31 09:31:09;;;;;;;0.20;0.20;;;;;;;;;;5050416;28;20028;-24
2021/01/31 09:33:38;;;;;;;0.60;0.30;;;;;;;;;;5031533;28;20025;-24
2021/01/31 09:36:19;;;;;;;0.47;0.40;;;;;;;;;;5031622;28;20108;-25
2021/01/31 09:38:46;;;;;;;0.30;0.30;;;;;;;;;;5030583;28;20034;-24
2021/01/31 09:41:11;;;;;;;0.20;0.20;;;;;;;;;;5031587;28;20029;-24
2021/01/31 09:43:37;;;;;;;0.30;0.30;;;;;;;;;;5031009;28;20025;-24
2021/01/31 09:46:06;;;;;;;0.93;0.65;;;;;;;;;;5031514;28;20044;-24
2021/01/31 09:48:32;;;;;;;0.30;0.30;;;;;;;;;;5031419;28;20357;-23
2021/01/31 09:51:03;;;;;;;0.22;0.22;;;;;;;;;;5030916;28;20022;-26
2021/01/31 09:53:39;;;;;;;0.20;0.20;;;;;;;;;;5031429;28;20625;-24
2021/01/31 09:56:08;;;;;;;0.52;0.30;;;;;;;;;;5030691;28;20079;-22
2021/01/31 09:58:40;;;;;;;0.30;0.10;;;;;;;;;;5030289;28;20112;-23
2021/01/31 10:01:10;;;;;;;0.28;0.25;;;;;;;;;;5031128;28;20033;-22
2021/01/31 10:03:36;;;;;;;0.15;0.10;;;;;;;;;;5030003;28;20049;-22
2021/01/31 10:06:05;;;;;;;1.85;0.20;;;;;;;;;;5031238;28;20051;-23
2021/01/31 10:08:31;;;;;;;0.30;0.20;;;;;;;;;;5029118;28;20044;-23
2021/01/31 10:10:57;;;;;;;0.47;0.40;;;;;;;;;;5030969;28;20030;-23
2021/01/31 10:13:32;;;;;;;0.50;0.30;;;;;;;;;;5031286;28;20152;-22
2021/01/31 10:15:58;;;;;;;0.65;0.43;;;;;;;;;;5030901;28;20029;-22
2021/01/31 10:18:28;;;;;;;0.85;0.57;;;;;;;;;;5030738;28;20024;-23
2021/01/31 10:21:13;;;;;;;2.35;0.90;;;;;;;;;;5030660;28;20109;-23
2021/01/31 10:23:38;;;;;;;0.47;0.30;;;;;;;;;;5031170;28;20116;-23
2021/01/31 10:26:05;;;;;;;1.33;0.50;;;;;;;;;;5030462;28;20417;-23
2021/01/31 10:28:35;;;;;;;1.20;0.85;;;;;;;;;;5043832;28;20020;-23
2021/01/31 10:31:01;;;;;;;0.32;0.30;;;;;;;;;;5050059;28;20387;-23
2021/01/31 10:33:35;;;;;;;0.38;0.32;;;;;;;;;;5049160;28;20028;-26
2021/01/31 10:36:14;;;;;;;1.27;0.80;;;;;;;;;;5050223;28;20032;-23
2021/01/31 10:38:42;;;;;;;0.75;0.40;;;;;;;;;;5048935;28;20186;-23
2021/01/31 10:41:07;;;;;;;0.75;0.45;;;;;;;;;;5050184;28;20488;-23
2021/01/31 10:43:32;;;;;;;0.80;0.77;;;;;;;;;;5049995;28;20021;-23
2021/01/31 10:45:58;;;;;;;0.50;0.50;;;;;;;;;;5048575;28;20170;-23
2021/01/31 10:48:23;;;;;;;2.38;0.63;;;;;;;;;;5050067;28;20025;-23
2021/01/31 10:50:49;;;;;;;0.30;0.30;;;;;;;;;;5049910;28;20491;-25
2021/01/31 10:53:14;;;;;;;1.48;0.60;;;;;;;;;;5048539;28;20033;-23
2021/01/31 10:55:39;;;;;;;1.33;0.98;;;;;;;;;;5042033;28;20488;-24
2021/01/31 10:58:05;;;;;;;1.35;0.85;;;;;;;;;;5049731;28;20055;-23
2021/01/31 11:00:31;;;;;;;0.40;0.40;;;;;;;;;;5050439;28;20843;-24
2021/01/31 11:02:56;;;;;;;1.67;1.02;;;;;;;;;;5049791;28;20375;-23
2021/01/31 11:05:22;;;;;;;0.28;0.28;;;;;;;;;;5049605;28;20051;-23
2021/01/31 11:07:47;;;;;;;0.35;0.30;;;;;;;;;;5049729;28;20029;-23
2021/01/31 11:10:13;;;;;;;0.20;0.20;;;;;;;;;;5049631;28;20025;-24
2021/01/31 11:12:39;;;;;;;1.58;0.60;;;;;;;;;;5047296;28;20049;-23
2021/01/31 11:15:06;;;;;;;0.47;0.47;;;;;;;;;;5048314;28;20064;-23
2021/01/31 11:17:31;;;;;;;0.60;0.45;;;;;;;;;;5048007;28;20441;-24
2021/01/31 11:19:57;;;;;;;0.68;0.22;;;;;;;;;;5048257;28;20480;-24
2021/01/31 11:22:22;;;;;;;0.52;0.40;;;;;;;;;;5048023;28;20028;-23
2021/01/31 11:24:49;;;;;;;1.50;0.30;;;;;;;;;;5048319;28;20033;-23
2021/01/31 11:27:14;;;;;;;0.57;0.45;;;;;;;;;;5040281;28;20049;-23
2021/01/31 11:29:40;;;;;;;0.30;0.30;;;;;;;;;;5047676;28;20078;-23
2021/01/31 11:32:06;;;;;;;0.30;0.30;;;;;;;;;;5046881;28;20039;-23
2021/01/31 11:34:31;;;;;;;1.15;0.55;;;;;;;;;;5049124;28;20041;-23
2021/01/31 11:36:57;;;;;;;1.10;0.80;;;;;;;;;;5049642;28;20029;-24
2021/01/31 11:39:22;;;;;;;0.90;0.40;;;;;;;;;;5049190;28;20036;-23
2021/01/31 11:41:48;;;;;;;0.85;0.40;;;;;;;;;;5047996;28;20040;-23
2021/01/31 11:44:13;;;;;;;0.50;0.50;;;;;;;;;;5047886;28;20051;-24
2021/01/31 11:46:39;;;;;;;0.30;0.30;;;;;;;;;;5049486;28;20025;-23
2021/01/31 11:49:04;;;;;;;0.20;0.10;;;;;;;;;;5049500;28;20107;-30
2021/01/31 11:51:30;;;;;;;0.10;0.10;;;;;;;;;;5048158;28;20035;-24
2021/01/31 11:53:56;;;;;;;0.30;0.20;;;;;;;;;;5049221;28;20017;-23
2021/01/31 11:56:21;;;;;;;1.42;0.65;;;;;;;;;;5048645;28;20533;-23
2021/01/31 11:58:47;;;;;;;0.38;0.30;;;;;;;;;;5048849;28;20068;-23
2021/01/31 12:01:13;;;;;;;1.02;0.50;;;;;;;;;;5049085;28;20047;-22
2021/01/31 12:03:38;;;;;;;0.77;0.50;;;;;;;;;;5047716;28;20541;-23
2021/01/31 12:06:04;;;;;;;0.22;0.20;;;;;;;;;;5049065;28;20056;-23
2021/01/31 12:08:29;;;;;;;5.25;1.50;;;;;;;;;;5046908;28;20668;-23
2021/01/31 12:10:55;;;;;;;0.40;0.40;;;;;;;;;;5048236;28;20024;-24
2021/01/31 12:13:20;;;;;;;0.40;0.32;;;;;;;;;;5045797;28;20033;-23
2021/01/31 12:15:46;;;;;;;1.73;0.73;;;;;;;;;;5047620;28;20043;-24
2021/01/31 12:18:13;;;;;;;0.82;0.65;;;;;;;;;;5046243;28;20024;-24
2021/01/31 12:20:38;;;;;;;1.38;1.08;;;;;;;;;;5047929;28;20086;-23
2021/01/31 12:23:04;;;;;;;6.57;2.03;;;;;;;;;;5046634;28;20419;-24
2021/01/31 12:25:30;;;;;;;4.38;2.45;;;;;;;;;;5047164;28;20025;-23
2021/01/31 12:27:58;;;;;;;1.05;0.75;;;;;;;;;;5043760;28;20410;-23
2021/01/31 12:30:25;;;;;;;0.93;0.70;;;;;;;;;;5034888;28;20093;-23
2021/01/31 12:32:50;;;;;;;1.25;0.80;;;;;;;;;;5050454;28;20091;-24
2021/01/31 12:35:16;;;;;;;1.23;0.60;;;;;;;;;;5052135;28;20025;-23
2021/01/31 12:37:42;;;;;;;2.15;0.70;;;;;;;;;;5052034;28;20503;-24
2021/01/31 12:40:08;;;;;;;1.17;0.77;;;;;;;;;;5052062;28;20037;-23
2021/01/31 12:42:34;;;;;;;0.75;0.52;;;;;;;;;;5051561;28;20036;-24
2021/01/31 12:44:59;;;;;;;0.43;0.35;;;;;;;;;;5051577;28;20033;-23
2021/01/31 12:47:24;;;;;;;0.45;0.45;;;;;;;;;;5052160;28;20099;-23
2021/01/31 12:49:50;;;;;;;20.90;10.00;;;;;;;;;;5051888;28;20029;-23
2021/01/31 12:52:15;;;;;;;1.13;1.02;;;;;;;;;;5051957;28;20028;-24
2021/01/31 12:54:41;;;;;;;0.63;0.30;;;;;;;;;;5052182;28;20032;-24
2021/01/31 12:57:07;;;;;;;1.60;0.88;;;;;;;;;;5041502;28;20037;-24
2021/01/31 12:59:32;;;;;;;0.52;0.47;;;;;;;;;;5048466;28;20032;-23
2021/01/31 13:01:59;;;;;;;0.63;0.57;;;;;;;;;;5052163;28;20108;-23
2021/01/31 13:04:24;;;;;;;0.93;0.77;;;;;;;;;;5051041;28;20147;-24
2021/01/31 13:06:50;;;;;;;0.50;0.47;;;;;;;;;;5052367;28;20499;-23
2021/01/31 13:09:15;;;;;;;0.52;0.47;;;;;;;;;;5051664;28;20118;-23
2021/01/31 13:11:41;;;;;;;0.60;0.50;;;;;;;;;;5052512;28;20049;-23
2021/01/31 13:14:06;;;;;;;2.25;0.90;;;;;;;;;;5052306;28;20064;-24
2021/01/31 13:16:31;;;;;;;1.73;0.98;;;;;;;;;;5052669;28;20476;-23
2021/01/31 13:18:57;;;;;;;1.33;0.65;;;;;;;;;;5051754;28;20067;-24
2021/01/31 13:21:22;;;;;;;1.88;1.00;;;;;;;;;;5051839;28;20036;-23
2021/01/31 13:23:48;;;;;;;0.00;0.00;;;;;;;;;;5052362;28;20064;-24
2021/01/31 13:26:13;;;;;;;0.95;0.77;;;;;;;;;;5051966;28;20448;-24
2021/01/31 13:28:39;;;;;;;1.00;0.90;;;;;;;;;;5051653;28;20025;-23
2021/01/31 13:31:04;;;;;;;1.20;0.90;;;;;;;;;;5049736;28;20032;-24
2021/01/31 13:33:30;;;;;;;0.82;0.50;;;;;;;;;;5049816;28;20082;-23
2021/01/31 13:35:55;;;;;;;1.70;0.85;;;;;;;;;;5050024;28;20033;-24
2021/01/31 13:38:21;;;;;;;0.50;0.50;;;;;;;;;;5049958;28;20029;-24
2021/01/31 13:40:47;;;;;;;2.28;1.27;;;;;;;;;;5051472;28;20067;-24
2021/01/31 13:43:12;;;;;;;1.27;0.95;;;;;;;;;;5043514;28;20032;-24
2021/01/31 13:45:37;;;;;;;2.10;1.20;;;;;;;;;;5050877;28;20376;-24
2021/01/31 13:48:03;;;;;;;1.67;1.15;;;;;;;;;;5050353;28;20601;-23
2021/01/31 13:50:28;;;;;;;1.65;1.10;;;;;;;;;;5050883;28;20021;-23
2021/01/31 13:52:54;;;;;;;0.93;0.82;;;;;;;;;;5050894;28;20029;-23
2021/01/31 13:55:20;;;;;;;1.00;0.90;;;;;;;;;;5049530;28;20044;-24
2021/01/31 13:57:45;;;;;;;1.80;1.00;;;;;;;;;;5049430;28;20048;-24
2021/01/31 14:00:13;;;;;;;1.63;1.30;;;;;;;;;;5050915;28;20060;-24
2021/01/31 14:02:42;;;;;;;2.45;1.23;;;;;;;;;;5051086;28;20121;-24
2021/01/31 14:05:08;;;;;;;2.30;1.40;;;;;;;;;;5049316;28;20029;-23
2021/01/31 14:07:33;;;;;;;1.65;0.95;;;;;;;;;;5050597;28;20066;-24
2021/01/31 14:09:59;;;;;;;1.70;1.27;;;;;;;;;;5049121;28;20033;-23
2021/01/31 14:12:24;;;;;;;1.05;0.95;;;;;;;;;;5050664;28;20662;-24
2021/01/31 14:14:50;;;;;;;1.30;1.15;;;;;;;;;;5050154;28;20063;-23
2021/01/31 14:17:15;;;;;;;0.65;0.63;;;;;;;;;;5050363;28;20078;-24
2021/01/31 14:19:41;;;;;;;1.67;1.20;;;;;;;;;;5050029;28;20056;-25
2021/01/31 14:22:06;;;;;;;2.40;1.58;;;;;;;;;;5050461;28;20021;-24
2021/01/31 14:24:32;;;;;;;1.35;0.85;;;;;;;;;;5050682;28;20064;-23
2021/01/31 14:26:57;;;;;;;2.00;1.20;;;;;;;;;;5044365;28;20052;-24
2021/01/31 14:29:23;;;;;;;4.38;1.60;;;;;;;;;;5050260;28;20029;-23
2021/01/31 14:31:48;;;;;;;1.63;1.25;;;;;;;;;;5049924;28;20104;-24
2021/01/31 14:34:13;;;;;;;2.03;0.90;;;;;;;;;;5050356;28;20483;-24
2021/01/31 14:36:39;;;;;;;1.50;1.17;;;;;;;;;;5050854;28;20020;-24
2021/01/31 14:39:05;;;;;;;1.27;0.90;;;;;;;;;;5050365;28;20032;-26
2021/01/31 14:41:30;;;;;;;2.28;1.45;;;;;;;;;;5050458;28;20033;-24
2021/01/31 14:43:55;;;;;;;1.60;1.27;;;;;;;;;;5050338;28;20076;-24
2021/01/31 14:46:21;;;;;;;3.15;1.98;;;;;;;;;;5050505;28;20085;-24
2021/01/31 14:48:47;;;;;;;1.80;1.13;;;;;;;;;;5050174;28;20033;-24
2021/01/31 14:51:13;;;;;;;1.90;1.67;;;;;;;;;;5050067;28;20032;-24